VJC6922 VLVT-VVNB
Flight info
| Callsign | VJC6922 |
|---|---|
| Flight time | N/A |
| Altitude | 33000 |
| Route | NET1C NOHET R474 LAVOS/K0863F330 R474 MC MC3J |
| Aircraft | A21N/M-SDE2E3FGHIRWXY/LB1 |
Departure
| Time | N/A |
|---|---|
| Airport | Wattay International Airport (VLVT) |
Arrival
| Time | 2026-05-09 10:51 |
|---|---|
| Airport | Noi Bai International Airport (VVNB) |
| Time | Latitude | Longitude | Altitude | Speed | Heading |
|---|---|---|---|---|---|
| 2026-05-09 10:12 | 18.36214 | 102.80445 | 15337 ft | 419 kts | 36° |
| 2026-05-09 10:12 | 18.38597 | 102.82238 | 15892 ft | 423 kts | 36° |
| 2026-05-09 10:12 | 18.41007 | 102.84055 | 16490 ft | 428 kts | 36° |
| 2026-05-09 10:12 | 18.43411 | 102.85861 | 17051 ft | 431 kts | 36° |
| 2026-05-09 10:13 | 18.45897 | 102.87730 | 17607 ft | 436 kts | 36° |
| 2026-05-09 10:13 | 18.48343 | 102.89572 | 18116 ft | 440 kts | 36° |
| 2026-05-09 10:13 | 18.50876 | 102.91483 | 18592 ft | 443 kts | 36° |
| 2026-05-09 10:13 | 18.53358 | 102.93363 | 19048 ft | 447 kts | 36° |
| 2026-05-09 10:14 | 18.55884 | 102.95270 | 19535 ft | 449 kts | 36° |
| 2026-05-09 10:14 | 18.58436 | 102.97191 | 20013 ft | 451 kts | 36° |
| 2026-05-09 10:14 | 18.61007 | 102.99122 | 20459 ft | 453 kts | 36° |
| 2026-05-09 10:14 | 18.63579 | 103.01066 | 20899 ft | 456 kts | 36° |
| 2026-05-09 10:15 | 18.66172 | 103.03029 | 21334 ft | 459 kts | 36° |
| 2026-05-09 10:15 | 18.68783 | 103.04998 | 21781 ft | 461 kts | 36° |
| 2026-05-09 10:15 | 18.71397 | 103.06980 | 22216 ft | 464 kts | 36° |
| 2026-05-09 10:15 | 18.74032 | 103.08973 | 22657 ft | 467 kts | 36° |
| 2026-05-09 10:16 | 18.76649 | 103.10948 | 23095 ft | 469 kts | 36° |
| 2026-05-09 10:16 | 18.79308 | 103.12963 | 23529 ft | 472 kts | 36° |
| 2026-05-09 10:16 | 18.81978 | 103.14984 | 23875 ft | 474 kts | 35° |
| 2026-05-09 10:16 | 18.84666 | 103.17020 | 24243 ft | 475 kts | 35° |
| 2026-05-09 10:17 | 18.87366 | 103.19062 | 24590 ft | 477 kts | 35° |
| 2026-05-09 10:17 | 18.90073 | 103.21111 | 24919 ft | 479 kts | 35° |
| 2026-05-09 10:17 | 18.92789 | 103.23175 | 25266 ft | 482 kts | 35° |
| 2026-05-09 10:17 | 18.95519 | 103.25252 | 25627 ft | 484 kts | 35° |
| 2026-05-09 10:18 | 18.98260 | 103.27330 | 25972 ft | 486 kts | 35° |
| 2026-05-09 10:18 | 19.01021 | 103.29424 | 26313 ft | 488 kts | 35° |
| 2026-05-09 10:18 | 19.03753 | 103.31498 | 26700 ft | 488 kts | 35° |
| 2026-05-09 10:18 | 19.06509 | 103.33587 | 27140 ft | 487 kts | 35° |
| 2026-05-09 10:19 | 19.09260 | 103.35676 | 27577 ft | 486 kts | 35° |
| 2026-05-09 10:19 | 19.12015 | 103.37776 | 28012 ft | 485 kts | 35° |
| 2026-05-09 10:19 | 19.14748 | 103.39859 | 28448 ft | 484 kts | 35° |
| 2026-05-09 10:19 | 19.17449 | 103.41917 | 28900 ft | 483 kts | 35° |
| 2026-05-09 10:20 | 19.20176 | 103.43994 | 29325 ft | 482 kts | 35° |
| 2026-05-09 10:20 | 19.22895 | 103.46067 | 29733 ft | 481 kts | 34° |
| 2026-05-09 10:20 | 19.25614 | 103.48135 | 30110 ft | 480 kts | 34° |
| 2026-05-09 10:20 | 19.28320 | 103.50194 | 30458 ft | 479 kts | 34° |
| 2026-05-09 10:21 | 19.31031 | 103.52261 | 30778 ft | 479 kts | 34° |
| 2026-05-09 10:21 | 19.33747 | 103.54333 | 31043 ft | 480 kts | 34° |
| 2026-05-09 10:21 | 19.36422 | 103.56378 | 31357 ft | 479 kts | 34° |
| 2026-05-09 10:21 | 19.39125 | 103.58449 | 31699 ft | 478 kts | 34° |
| 2026-05-09 10:22 | 19.41833 | 103.60529 | 32024 ft | 477 kts | 34° |
| 2026-05-09 10:22 | 19.44490 | 103.62571 | 32312 ft | 477 kts | 34° |
| 2026-05-09 10:22 | 19.47168 | 103.64645 | 32651 ft | 476 kts | 34° |
| 2026-05-09 10:22 | 19.49849 | 103.66725 | 32938 ft | 476 kts | 34° |
| 2026-05-09 10:23 | 19.52521 | 103.68797 | 33009 ft | 474 kts | 34° |
| 2026-05-09 10:23 | 19.57845 | 103.72925 | 32999 ft | 474 kts | 34° |
| 2026-05-09 10:24 | 19.63141 | 103.77032 | 32991 ft | 474 kts | 34° |
| 2026-05-09 10:24 | 19.68479 | 103.81173 | 32916 ft | 474 kts | 34° |
| 2026-05-09 10:25 | 19.73818 | 103.85309 | 32962 ft | 474 kts | 34° |
| 2026-05-09 10:25 | 19.79116 | 103.89410 | 32975 ft | 472 kts | 34° |
| 2026-05-09 10:26 | 19.84432 | 103.93549 | 32985 ft | 472 kts | 34° |
| 2026-05-09 10:26 | 19.89703 | 103.97653 | 32983 ft | 472 kts | 34° |
| 2026-05-09 10:27 | 19.95029 | 104.01809 | 33002 ft | 474 kts | 34° |
| 2026-05-09 10:27 | 20.00359 | 104.05959 | 33001 ft | 475 kts | 34° |
| 2026-05-09 10:28 | 20.05657 | 104.10097 | 33014 ft | 475 kts | 34° |
| 2026-05-09 10:28 | 20.10994 | 104.14265 | 33016 ft | 475 kts | 34° |
| 2026-05-09 10:29 | 20.16315 | 104.18428 | 33011 ft | 474 kts | 34° |
| 2026-05-09 10:29 | 20.21634 | 104.22590 | 33018 ft | 474 kts | 34° |
| 2026-05-09 10:30 | 20.26935 | 104.26753 | 33019 ft | 476 kts | 34° |
| 2026-05-09 10:30 | 20.32287 | 104.30947 | 33017 ft | 477 kts | 34° |
| 2026-05-09 10:31 | 20.37631 | 104.35142 | 33005 ft | 476 kts | 34° |
| 2026-05-09 10:31 | 20.42927 | 104.39303 | 32251 ft | 476 kts | 34° |
| 2026-05-09 10:31 | 20.45622 | 104.41404 | 31158 ft | 483 kts | 34° |
| 2026-05-09 10:32 | 20.48356 | 104.43498 | 30259 ft | 484 kts | 34° |
| 2026-05-09 10:32 | 20.51095 | 104.45598 | 29322 ft | 486 kts | 34° |
| 2026-05-09 10:32 | 20.53845 | 104.47715 | 28427 ft | 486 kts | 34° |
| 2026-05-09 10:32 | 20.56589 | 104.49834 | 27561 ft | 486 kts | 34° |
| 2026-05-09 10:33 | 20.59332 | 104.51950 | 26740 ft | 485 kts | 34° |
| 2026-05-09 10:33 | 20.62075 | 104.54064 | 25947 ft | 484 kts | 34° |
| 2026-05-09 10:33 | 20.64800 | 104.56163 | 25208 ft | 482 kts | 35° |
| 2026-05-09 10:33 | 20.67484 | 104.58229 | 24475 ft | 480 kts | 35° |
| 2026-05-09 10:34 | 20.70186 | 104.60311 | 23726 ft | 475 kts | 36° |
| 2026-05-09 10:34 | 20.75506 | 104.64421 | 22018 ft | 467 kts | 36° |
| 2026-05-09 10:34 | 20.78133 | 104.66449 | 21191 ft | 462 kts | 36° |
| 2026-05-09 10:35 | 20.80707 | 104.68489 | 20409 ft | 457 kts | 39° |
| 2026-05-09 10:35 | 20.82857 | 104.70954 | 19659 ft | 450 kts | 56° |
| 2026-05-09 10:35 | 20.84261 | 104.73859 | 18991 ft | 442 kts | 70° |
| 2026-05-09 10:35 | 20.85258 | 104.76943 | 18344 ft | 435 kts | 72° |
| 2026-05-09 10:36 | 20.86221 | 104.79984 | 17625 ft | 429 kts | 72° |
| 2026-05-09 10:36 | 20.87197 | 104.82966 | 16917 ft | 423 kts | 71° |
| 2026-05-09 10:36 | 20.88181 | 104.85911 | 16247 ft | 417 kts | 71° |
| 2026-05-09 10:36 | 20.89157 | 104.88806 | 15618 ft | 410 kts | 71° |
| 2026-05-09 10:37 | 20.90119 | 104.91656 | 15035 ft | 404 kts | 71° |
| 2026-05-09 10:37 | 20.91064 | 104.94457 | 14439 ft | 398 kts | 70° |
| 2026-05-09 10:37 | 20.92000 | 104.97233 | 13873 ft | 393 kts | 70° |
| 2026-05-09 10:37 | 20.92911 | 104.99941 | 13249 ft | 389 kts | 70° |
| 2026-05-09 10:38 | 20.93826 | 105.02655 | 12651 ft | 387 kts | 70° |
| 2026-05-09 10:38 | 20.94740 | 105.05364 | 12072 ft | 387 kts | 70° |
| 2026-05-09 10:38 | 20.95682 | 105.08059 | 11536 ft | 383 kts | 69° |
| 2026-05-09 10:38 | 20.96614 | 105.10674 | 11226 ft | 368 kts | 69° |
| 2026-05-09 10:39 | 20.97505 | 105.13183 | 11008 ft | 353 kts | 70° |
| 2026-05-09 10:39 | 20.98356 | 105.15590 | 10824 ft | 338 kts | 70° |
| 2026-05-09 10:39 | 20.99172 | 105.17898 | 10654 ft | 323 kts | 70° |
| 2026-05-09 10:39 | 20.99948 | 105.20097 | 10483 ft | 309 kts | 70° |
| 2026-05-09 10:40 | 21.00685 | 105.22190 | 10194 ft | 301 kts | 70° |
| 2026-05-09 10:40 | 21.01625 | 105.24179 | 9710 ft | 301 kts | 52° |
| 2026-05-09 10:40 | 21.03107 | 105.25755 | 9219 ft | 300 kts | 41° |
| 2026-05-09 10:40 | 21.04692 | 105.27198 | 8788 ft | 297 kts | 41° |
| 2026-05-09 10:41 | 21.06266 | 105.28631 | 8336 ft | 295 kts | 41° |
| 2026-05-09 10:41 | 21.07815 | 105.30056 | 7898 ft | 294 kts | 41° |
| 2026-05-09 10:41 | 21.09362 | 105.31492 | 7442 ft | 293 kts | 41° |
| 2026-05-09 10:41 | 21.10895 | 105.32918 | 7057 ft | 289 kts | 41° |
| 2026-05-09 10:42 | 21.12393 | 105.34318 | 6714 ft | 284 kts | 41° |
| 2026-05-09 10:42 | 21.13864 | 105.35692 | 6364 ft | 280 kts | 41° |
| 2026-05-09 10:42 | 21.15298 | 105.37035 | 6162 ft | 269 kts | 41° |
| 2026-05-09 10:42 | 21.16665 | 105.38314 | 5929 ft | 255 kts | 41° |
| 2026-05-09 10:43 | 21.17974 | 105.39540 | 5623 ft | 240 kts | 41° |
| 2026-05-09 10:43 | 21.19192 | 105.40683 | 5323 ft | 225 kts | 41° |
| 2026-05-09 10:43 | 21.20320 | 105.41745 | 5359 ft | 212 kts | 41° |
| 2026-05-09 10:43 | 21.21416 | 105.42777 | 5435 ft | 212 kts | 42° |
| 2026-05-09 10:44 | 21.22340 | 105.44015 | 5315 ft | 211 kts | 67° |
| 2026-05-09 10:44 | 21.22768 | 105.45493 | 5147 ft | 210 kts | 76° |
| 2026-05-09 10:44 | 21.23133 | 105.47016 | 4930 ft | 209 kts | 76° |
| 2026-05-09 10:44 | 21.23515 | 105.48522 | 4719 ft | 209 kts | 75° |
| 2026-05-09 10:45 | 21.23905 | 105.50000 | 4492 ft | 208 kts | 75° |
| 2026-05-09 10:46 | 21.25603 | 105.55824 | 3574 ft | 202 kts | 72° |
| 2026-05-09 10:46 | 21.26050 | 105.57253 | 3355 ft | 202 kts | 72° |
| 2026-05-09 10:46 | 21.26482 | 105.58675 | 3124 ft | 200 kts | 72° |
| 2026-05-09 10:46 | 21.26899 | 105.60098 | 2963 ft | 199 kts | 75° |
| 2026-05-09 10:47 | 21.27138 | 105.61537 | 2946 ft | 199 kts | 87° |
| 2026-05-09 10:47 | 21.27074 | 105.63021 | 2945 ft | 199 kts | 98° |
| 2026-05-09 10:47 | 21.26788 | 105.64473 | 2772 ft | 199 kts | 104° |
| 2026-05-09 10:47 | 21.26375 | 105.65881 | 2539 ft | 197 kts | 104° |
| 2026-05-09 10:48 | 21.25983 | 105.67245 | 2342 ft | 187 kts | 104° |
| 2026-05-09 10:48 | 21.25602 | 105.68573 | 2075 ft | 181 kts | 104° |
| 2026-05-09 10:48 | 21.25235 | 105.69846 | 1818 ft | 176 kts | 104° |
| 2026-05-09 10:48 | 21.24884 | 105.71067 | 1590 ft | 166 kts | 104° |
| 2026-05-09 10:49 | 21.24554 | 105.72215 | 1383 ft | 161 kts | 103° |
| 2026-05-09 10:49 | 21.24236 | 105.73319 | 1162 ft | 150 kts | 104° |
| 2026-05-09 10:49 | 21.23927 | 105.74391 | 966 ft | 149 kts | 105° |
| 2026-05-09 10:49 | 21.23621 | 105.75456 | 784 ft | 149 kts | 106° |
| 2026-05-09 10:50 | 21.23314 | 105.76521 | 596 ft | 150 kts | 107° |
| 2026-05-09 10:50 | 21.23004 | 105.77591 | 427 ft | 149 kts | 107° |
| 2026-05-09 10:50 | 21.22694 | 105.78660 | 233 ft | 149 kts | 106° |
| 2026-05-09 10:50 | 21.22390 | 105.79725 | 54 ft | 147 kts | 105° |
| 2026-05-09 10:51 | 21.22137 | 105.80604 | 51 ft | 96 kts | 106° |
| 2026-05-09 10:51 | 21.22023 | 105.80984 | 57 ft | 16 kts | 123° |
| 2026-05-09 10:51 | 21.21938 | 105.80976 | 56 ft | 16 kts | 241° |
| 2026-05-09 10:51 | 21.21919 | 105.80896 | 52 ft | 17 kts | 258° |
| 2026-05-09 10:52 | 21.21894 | 105.80773 | 55 ft | 14 kts | 257° |
| 2026-05-09 10:52 | 21.21817 | 105.80717 | 55 ft | 15 kts | 197° |
| 2026-05-09 10:52 | 21.21672 | 105.80670 | 54 ft | 18 kts | 197° |
| 2026-05-09 10:52 | 21.21639 | 105.80589 | 54 ft | 14 kts | 288° |
| 2026-05-09 10:53 | 21.21660 | 105.80518 | 54 ft | 16 kts | 287° |
| 2026-05-09 10:53 | 21.21694 | 105.80398 | 50 ft | 18 kts | 287° |
| 2026-05-09 10:53 | 21.21733 | 105.80264 | 54 ft | 20 kts | 287° |
| 2026-05-09 10:53 | 21.21775 | 105.80117 | 54 ft | 22 kts | 287° |
| 2026-05-09 10:54 | 21.21822 | 105.79956 | 52 ft | 24 kts | 287° |
| 2026-05-09 10:54 | 21.21870 | 105.79794 | 54 ft | 21 kts | 287° |
| 2026-05-09 10:54 | 21.21848 | 105.79726 | 54 ft | 6 kts | 199° |
| 2026-05-09 10:54 | 21.21804 | 105.79711 | 54 ft | 6 kts | 197° |
| 2026-05-09 10:55 | 21.21785 | 105.79705 | 54 ft | 0 kts | 197° |
| 2026-05-09 10:55 | 21.21784 | 105.79704 | 54 ft | 0 kts | 197° |